sensor_id;sensor_type;location;lat;lon;timestamp;P1;durP1;ratioP1;P2;durP2;ratioP2
6997;SDS011;3539;47.982;12.238;2023-08-06T00:01:58;6.87;;;5.77;;
6997;SDS011;3539;47.982;12.238;2023-08-06T00:25:09;6.23;;;5.63;;
6997;SDS011;3539;47.982;12.238;2023-08-06T00:27:37;6.37;;;5.70;;
6997;SDS011;3539;47.982;12.238;2023-08-06T00:30:18;6.20;;;5.57;;
6997;SDS011;3539;47.982;12.238;2023-08-06T00:32:46;6.53;;;5.77;;
6997;SDS011;3539;47.982;12.238;2023-08-06T00:35:26;7.30;;;6.60;;
6997;SDS011;3539;47.982;12.238;2023-08-06T00:43:13;6.20;;;5.60;;
6997;SDS011;3539;47.982;12.238;2023-08-06T00:45:40;6.63;;;5.80;;
6997;SDS011;3539;47.982;12.238;2023-08-06T00:48:07;6.73;;;4.97;;
6997;SDS011;3539;47.982;12.238;2023-08-06T00:50:34;5.77;;;4.90;;
6997;SDS011;3539;47.982;12.238;2023-08-06T00:53:02;5.63;;;4.90;;
6997;SDS011;3539;47.982;12.238;2023-08-06T00:55:29;5.07;;;4.57;;
6997;SDS011;3539;47.982;12.238;2023-08-06T01:00:37;6.33;;;4.97;;
6997;SDS011;3539;47.982;12.238;2023-08-06T01:03:05;5.13;;;4.63;;
6997;SDS011;3539;47.982;12.238;2023-08-06T01:05:32;5.47;;;4.43;;
6997;SDS011;3539;47.982;12.238;2023-08-06T01:08:07;5.17;;;4.60;;
6997;SDS011;3539;47.982;12.238;2023-08-06T01:10:45;5.80;;;4.60;;
6997;SDS011;3539;47.982;12.238;2023-08-06T01:13:24;5.73;;;5.13;;
6997;SDS011;3539;47.982;12.238;2023-08-06T01:15:55;6.30;;;4.77;;
6997;SDS011;3539;47.982;12.238;2023-08-06T01:18:23;5.93;;;5.30;;
6997;SDS011;3539;47.982;12.238;2023-08-06T01:20:51;5.60;;;4.97;;
6997;SDS011;3539;47.982;12.238;2023-08-06T01:23:18;6.17;;;5.43;;
6997;SDS011;3539;47.982;12.238;2023-08-06T01:25:48;6.13;;;5.30;;
6997;SDS011;3539;47.982;12.238;2023-08-06T01:28:22;5.13;;;4.63;;
6997;SDS011;3539;47.982;12.238;2023-08-06T01:30:54;5.37;;;4.87;;
6997;SDS011;3539;47.982;12.238;2023-08-06T01:33:21;6.30;;;5.43;;
6997;SDS011;3539;47.982;12.238;2023-08-06T01:35:49;6.43;;;5.50;;
6997;SDS011;3539;47.982;12.238;2023-08-06T01:38:18;5.57;;;4.87;;
6997;SDS011;3539;47.982;12.238;2023-08-06T01:40:45;6.60;;;5.03;;
6997;SDS011;3539;47.982;12.238;2023-08-06T01:43:11;5.97;;;4.77;;
6997;SDS011;3539;47.982;12.238;2023-08-06T01:45:38;5.00;;;4.50;;
6997;SDS011;3539;47.982;12.238;2023-08-06T01:48:05;6.60;;;4.53;;
6997;SDS011;3539;47.982;12.238;2023-08-06T01:50:32;8.17;;;4.63;;
6997;SDS011;3539;47.982;12.238;2023-08-06T01:53:00;4.70;;;4.17;;
6997;SDS011;3539;47.982;12.238;2023-08-06T01:55:28;7.03;;;4.50;;
6997;SDS011;3539;47.982;12.238;2023-08-06T01:57:55;4.40;;;4.00;;
6997;SDS011;3539;47.982;12.238;2023-08-06T02:00:22;4.83;;;4.33;;
6997;SDS011;3539;47.982;12.238;2023-08-06T02:02:49;5.70;;;4.10;;
6997;SDS011;3539;47.982;12.238;2023-08-06T02:05:16;4.43;;;3.67;;
6997;SDS011;3539;47.982;12.238;2023-08-06T02:07:42;4.17;;;3.70;;
6997;SDS011;3539;47.982;12.238;2023-08-06T02:10:11;4.70;;;4.27;;
6997;SDS011;3539;47.982;12.238;2023-08-06T02:12:37;4.57;;;3.93;;
6997;SDS011;3539;47.982;12.238;2023-08-06T02:15:05;4.60;;;4.20;;
6997;SDS011;3539;47.982;12.238;2023-08-06T02:17:32;7.17;;;4.40;;
6997;SDS011;3539;47.982;12.238;2023-08-06T02:19:59;4.37;;;3.97;;
6997;SDS011;3539;47.982;12.238;2023-08-06T02:22:26;4.73;;;4.13;;
6997;SDS011;3539;47.982;12.238;2023-08-06T02:24:53;4.87;;;4.37;;
6997;SDS011;3539;47.982;12.238;2023-08-06T02:27:21;4.80;;;4.30;;
6997;SDS011;3539;47.982;12.238;2023-08-06T02:29:48;4.27;;;3.87;;
6997;SDS011;3539;47.982;12.238;2023-08-06T02:32:15;5.03;;;4.57;;
6997;SDS011;3539;47.982;12.238;2023-08-06T02:34:42;6.50;;;4.20;;
6997;SDS011;3539;47.982;12.238;2023-08-06T02:37:08;4.93;;;4.43;;
6997;SDS011;3539;47.982;12.238;2023-08-06T02:39:35;4.97;;;4.37;;
6997;SDS011;3539;47.982;12.238;2023-08-06T02:42:07;5.63;;;4.70;;
6997;SDS011;3539;47.982;12.238;2023-08-06T02:47:30;4.80;;;4.27;;
6997;SDS011;3539;47.982;12.238;2023-08-06T02:50:00;7.50;;;4.27;;
6997;SDS011;3539;47.982;12.238;2023-08-06T02:52:27;4.97;;;4.27;;
6997;SDS011;3539;47.982;12.238;2023-08-06T02:54:54;5.60;;;4.70;;
6997;SDS011;3539;47.982;12.238;2023-08-06T02:57:21;5.13;;;4.63;;
6997;SDS011;3539;47.982;12.238;2023-08-06T02:59:48;4.90;;;4.40;;
6997;SDS011;3539;47.982;12.238;2023-08-06T03:02:16;5.07;;;4.33;;
6997;SDS011;3539;47.982;12.238;2023-08-06T03:04:43;6.10;;;4.73;;
6997;SDS011;3539;47.982;12.238;2023-08-06T03:07:10;6.33;;;4.90;;
6997;SDS011;3539;47.982;12.238;2023-08-06T03:09:36;5.63;;;4.50;;
6997;SDS011;3539;47.982;12.238;2023-08-06T03:12:03;5.30;;;4.73;;
6997;SDS011;3539;47.982;12.238;2023-08-06T03:14:31;5.97;;;4.27;;
6997;SDS011;3539;47.982;12.238;2023-08-06T03:16:58;4.80;;;4.30;;
6997;SDS011;3539;47.982;12.238;2023-08-06T03:19:27;3.90;;;3.60;;
6997;SDS011;3539;47.982;12.238;2023-08-06T03:21:53;4.63;;;4.13;;
6997;SDS011;3539;47.982;12.238;2023-08-06T03:24:20;4.90;;;4.10;;
6997;SDS011;3539;47.982;12.238;2023-08-06T03:26:47;4.20;;;3.80;;
6997;SDS011;3539;47.982;12.238;2023-08-06T03:29:14;3.73;;;3.43;;
6997;SDS011;3539;47.982;12.238;2023-08-06T03:31:41;6.03;;;3.60;;
6997;SDS011;3539;47.982;12.238;2023-08-06T03:34:08;4.17;;;3.43;;
6997;SDS011;3539;47.982;12.238;2023-08-06T03:36:36;4.00;;;3.60;;
6997;SDS011;3539;47.982;12.238;2023-08-06T03:54:35;3.83;;;3.40;;
6997;SDS011;3539;47.982;12.238;2023-08-06T03:57:03;3.40;;;3.10;;
6997;SDS011;3539;47.982;12.238;2023-08-06T03:59:41;3.77;;;2.77;;
6997;SDS011;3539;47.982;12.238;2023-08-06T04:02:11;3.93;;;3.50;;
6997;SDS011;3539;47.982;12.238;2023-08-06T04:04:40;5.10;;;3.50;;
6997;SDS011;3539;47.982;12.238;2023-08-06T04:07:08;3.10;;;2.73;;
6997;SDS011;3539;47.982;12.238;2023-08-06T04:09:53;3.43;;;3.13;;
6997;SDS011;3539;47.982;12.238;2023-08-06T04:12:54;3.57;;;3.07;;
6997;SDS011;3539;47.982;12.238;2023-08-06T04:15:21;3.30;;;2.90;;
6997;SDS011;3539;47.982;12.238;2023-08-06T04:17:48;3.00;;;2.70;;
6997;SDS011;3539;47.982;12.238;2023-08-06T04:20:15;3.40;;;2.77;;
6997;SDS011;3539;47.982;12.238;2023-08-06T04:22:41;3.83;;;2.93;;
6997;SDS011;3539;47.982;12.238;2023-08-06T04:25:13;3.40;;;3.10;;
6997;SDS011;3539;47.982;12.238;2023-08-06T04:27:41;4.00;;;2.90;;
6997;SDS011;3539;47.982;12.238;2023-08-06T04:30:08;3.27;;;2.60;;
6997;SDS011;3539;47.982;12.238;2023-08-06T04:32:37;4.10;;;2.80;;
6997;SDS011;3539;47.982;12.238;2023-08-06T04:35:04;3.60;;;3.10;;
6997;SDS011;3539;47.982;12.238;2023-08-06T04:37:31;3.77;;;3.20;;
6997;SDS011;3539;47.982;12.238;2023-08-06T04:39:58;4.03;;;3.07;;
6997;SDS011;3539;47.982;12.238;2023-08-06T04:42:26;3.60;;;3.30;;
6997;SDS011;3539;47.982;12.238;2023-08-06T04:44:53;3.73;;;3.20;;
6997;SDS011;3539;47.982;12.238;2023-08-06T04:47:20;3.67;;;3.37;;
6997;SDS011;3539;47.982;12.238;2023-08-06T04:49:47;4.83;;;3.47;;
6997;SDS011;3539;47.982;12.238;2023-08-06T04:52:14;3.37;;;3.07;;
6997;SDS011;3539;47.982;12.238;2023-08-06T04:54:41;3.40;;;3.10;;
6997;SDS011;3539;47.982;12.238;2023-08-06T04:57:10;3.60;;;3.00;;
6997;SDS011;3539;47.982;12.238;2023-08-06T04:59:38;3.17;;;2.83;;
6997;SDS011;3539;47.982;12.238;2023-08-06T05:02:05;2.90;;;2.60;;
6997;SDS011;3539;47.982;12.238;2023-08-06T05:04:32;4.23;;;2.70;;
6997;SDS011;3539;47.982;12.238;2023-08-06T05:06:59;3.53;;;2.67;;
6997;SDS011;3539;47.982;12.238;2023-08-06T05:09:26;2.73;;;2.43;;
6997;SDS011;3539;47.982;12.238;2023-08-06T05:11:53;3.17;;;2.60;;
6997;SDS011;3539;47.982;12.238;2023-08-06T05:14:19;3.73;;;2.57;;
6997;SDS011;3539;47.982;12.238;2023-08-06T05:16:48;2.80;;;2.60;;
6997;SDS011;3539;47.982;12.238;2023-08-06T05:19:14;2.53;;;2.33;;
6997;SDS011;3539;47.982;12.238;2023-08-06T05:21:41;3.20;;;2.40;;
6997;SDS011;3539;47.982;12.238;2023-08-06T05:24:08;3.07;;;2.10;;
6997;SDS011;3539;47.982;12.238;2023-08-06T05:26:35;2.17;;;1.97;;
6997;SDS011;3539;47.982;12.238;2023-08-06T05:29:02;2.97;;;2.20;;
6997;SDS011;3539;47.982;12.238;2023-08-06T05:31:28;2.50;;;2.30;;
6997;SDS011;3539;47.982;12.238;2023-08-06T05:33:57;2.60;;;2.40;;
6997;SDS011;3539;47.982;12.238;2023-08-06T05:36:23;2.80;;;2.47;;
6997;SDS011;3539;47.982;12.238;2023-08-06T05:38:50;2.60;;;2.30;;
6997;SDS011;3539;47.982;12.238;2023-08-06T05:41:17;4.07;;;2.10;;
6997;SDS011;3539;47.982;12.238;2023-08-06T05:43:44;3.23;;;2.40;;
6997;SDS011;3539;47.982;12.238;2023-08-06T05:46:11;3.03;;;2.53;;
6997;SDS011;3539;47.982;12.238;2023-08-06T05:48:38;2.70;;;2.50;;
6997;SDS011;3539;47.982;12.238;2023-08-06T05:51:06;4.67;;;2.67;;
6997;SDS011;3539;47.982;12.238;2023-08-06T05:53:34;2.50;;;2.30;;
6997;SDS011;3539;47.982;12.238;2023-08-06T05:56:02;2.30;;;2.10;;
6997;SDS011;3539;47.982;12.238;2023-08-06T05:58:29;2.63;;;2.23;;
6997;SDS011;3539;47.982;12.238;2023-08-06T06:00:56;2.90;;;2.37;;
6997;SDS011;3539;47.982;12.238;2023-08-06T06:03:25;2.40;;;2.20;;
6997;SDS011;3539;47.982;12.238;2023-08-06T06:05:52;3.70;;;2.67;;
6997;SDS011;3539;47.982;12.238;2023-08-06T06:08:20;2.20;;;2.00;;
6997;SDS011;3539;47.982;12.238;2023-08-06T06:10:47;3.90;;;2.50;;
6997;SDS011;3539;47.982;12.238;2023-08-06T06:13:13;2.47;;;2.27;;
6997;SDS011;3539;47.982;12.238;2023-08-06T06:15:40;2.83;;;2.40;;
6997;SDS011;3539;47.982;12.238;2023-08-06T06:18:07;2.30;;;2.10;;
6997;SDS011;3539;47.982;12.238;2023-08-06T06:20:34;2.50;;;2.13;;
6997;SDS011;3539;47.982;12.238;2023-08-06T06:23:00;2.30;;;2.10;;
6997;SDS011;3539;47.982;12.238;2023-08-06T06:25:28;2.23;;;2.03;;
6997;SDS011;3539;47.982;12.238;2023-08-06T06:27:55;3.97;;;2.17;;
6997;SDS011;3539;47.982;12.238;2023-08-06T06:30:23;2.73;;;2.13;;
6997;SDS011;3539;47.982;12.238;2023-08-06T06:32:50;2.50;;;2.30;;
6997;SDS011;3539;47.982;12.238;2023-08-06T06:35:17;2.70;;;2.30;;
6997;SDS011;3539;47.982;12.238;2023-08-06T06:37:44;1.93;;;1.80;;
6997;SDS011;3539;47.982;12.238;2023-08-06T06:40:11;2.40;;;2.20;;
6997;SDS011;3539;47.982;12.238;2023-08-06T06:42:39;2.20;;;2.00;;
6997;SDS011;3539;47.982;12.238;2023-08-06T06:45:06;2.20;;;2.00;;
6997;SDS011;3539;47.982;12.238;2023-08-06T06:47:34;2.47;;;2.27;;
6997;SDS011;3539;47.982;12.238;2023-08-06T06:50:01;2.30;;;2.00;;
6997;SDS011;3539;47.982;12.238;2023-08-06T06:52:29;2.17;;;1.80;;
6997;SDS011;3539;47.982;12.238;2023-08-06T06:54:55;2.10;;;1.90;;
6997;SDS011;3539;47.982;12.238;2023-08-06T06:57:22;2.33;;;1.93;;
6997;SDS011;3539;47.982;12.238;2023-08-06T06:59:50;1.97;;;1.80;;
6997;SDS011;3539;47.982;12.238;2023-08-06T07:02:17;1.80;;;1.70;;
6997;SDS011;3539;47.982;12.238;2023-08-06T07:04:44;1.77;;;1.63;;
6997;SDS011;3539;47.982;12.238;2023-08-06T07:07:11;5.63;;;2.00;;
6997;SDS011;3539;47.982;12.238;2023-08-06T07:09:37;2.40;;;1.87;;
6997;SDS011;3539;47.982;12.238;2023-08-06T07:12:05;3.17;;;1.70;;
6997;SDS011;3539;47.982;12.238;2023-08-06T07:14:32;1.90;;;1.70;;
6997;SDS011;3539;47.982;12.238;2023-08-06T07:17:00;2.00;;;1.57;;
6997;SDS011;3539;47.982;12.238;2023-08-06T07:19:27;1.90;;;1.63;;
6997;SDS011;3539;47.982;12.238;2023-08-06T07:21:53;1.87;;;1.50;;
6997;SDS011;3539;47.982;12.238;2023-08-06T07:24:21;1.80;;;1.57;;
6997;SDS011;3539;47.982;12.238;2023-08-06T07:26:47;3.20;;;1.83;;
6997;SDS011;3539;47.982;12.238;2023-08-06T07:29:14;1.90;;;1.70;;
6997;SDS011;3539;47.982;12.238;2023-08-06T07:31:44;1.60;;;1.50;;
6997;SDS011;3539;47.982;12.238;2023-08-06T07:34:13;2.23;;;1.60;;
6997;SDS011;3539;47.982;12.238;2023-08-06T07:36:39;1.67;;;1.53;;
6997;SDS011;3539;47.982;12.238;2023-08-06T07:39:06;1.57;;;1.37;;
6997;SDS011;3539;47.982;12.238;2023-08-06T07:41:33;1.93;;;1.50;;
6997;SDS011;3539;47.982;12.238;2023-08-06T07:44:01;1.40;;;1.30;;
6997;SDS011;3539;47.982;12.238;2023-08-06T07:46:28;1.30;;;1.20;;
6997;SDS011;3539;47.982;12.238;2023-08-06T07:48:55;1.70;;;1.60;;
6997;SDS011;3539;47.982;12.238;2023-08-06T07:51:23;1.63;;;1.40;;
6997;SDS011;3539;47.982;12.238;2023-08-06T07:53:50;1.97;;;1.40;;
6997;SDS011;3539;47.982;12.238;2023-08-06T07:56:17;2.43;;;1.50;;
6997;SDS011;3539;47.982;12.238;2023-08-06T07:58:43;1.93;;;1.40;;
6997;SDS011;3539;47.982;12.238;2023-08-06T08:01:10;2.73;;;1.57;;
6997;SDS011;3539;47.982;12.238;2023-08-06T08:03:39;1.70;;;1.30;;
6997;SDS011;3539;47.982;12.238;2023-08-06T08:06:06;1.43;;;1.27;;
6997;SDS011;3539;47.982;12.238;2023-08-06T08:08:35;1.20;;;1.10;;
6997;SDS011;3539;47.982;12.238;2023-08-06T08:11:08;1.40;;;1.30;;
6997;SDS011;3539;47.982;12.238;2023-08-06T08:13:42;2.13;;;1.50;;
6997;SDS011;3539;47.982;12.238;2023-08-06T08:16:11;1.73;;;1.13;;
6997;SDS011;3539;47.982;12.238;2023-08-06T08:18:37;1.30;;;1.10;;
6997;SDS011;3539;47.982;12.238;2023-08-06T08:21:08;1.30;;;1.20;;
6997;SDS011;3539;47.982;12.238;2023-08-06T08:23:36;1.10;;;1.00;;
6997;SDS011;3539;47.982;12.238;2023-08-06T08:26:04;2.40;;;1.07;;
6997;SDS011;3539;47.982;12.238;2023-08-06T08:28:31;1.20;;;1.00;;
6997;SDS011;3539;47.982;12.238;2023-08-06T08:30:57;1.30;;;1.10;;
6997;SDS011;3539;47.982;12.238;2023-08-06T08:33:24;3.47;;;1.03;;
6997;SDS011;3539;47.982;12.238;2023-08-06T08:35:51;1.80;;;1.10;;
6997;SDS011;3539;47.982;12.238;2023-08-06T08:38:18;0.93;;;0.90;;
6997;SDS011;3539;47.982;12.238;2023-08-06T08:40:46;1.50;;;1.10;;
6997;SDS011;3539;47.982;12.238;2023-08-06T08:43:18;2.03;;;1.20;;
6997;SDS011;3539;47.982;12.238;2023-08-06T08:45:49;1.10;;;1.00;;
6997;SDS011;3539;47.982;12.238;2023-08-06T08:48:17;1.67;;;1.07;;
6997;SDS011;3539;47.982;12.238;2023-08-06T08:50:45;2.60;;;1.30;;
6997;SDS011;3539;47.982;12.238;2023-08-06T08:53:12;1.30;;;1.20;;
6997;SDS011;3539;47.982;12.238;2023-08-06T08:55:40;1.23;;;1.10;;
6997;SDS011;3539;47.982;12.238;2023-08-06T08:58:11;1.67;;;1.10;;
6997;SDS011;3539;47.982;12.238;2023-08-06T09:00:37;2.43;;;1.37;;
6997;SDS011;3539;47.982;12.238;2023-08-06T09:03:06;1.87;;;1.43;;
6997;SDS011;3539;47.982;12.238;2023-08-06T09:05:33;2.03;;;1.20;;
6997;SDS011;3539;47.982;12.238;2023-08-06T09:08:01;2.40;;;1.20;;
6997;SDS011;3539;47.982;12.238;2023-08-06T09:10:29;3.47;;;1.10;;
6997;SDS011;3539;47.982;12.238;2023-08-06T09:12:56;1.83;;;1.00;;
6997;SDS011;3539;47.982;12.238;2023-08-06T09:15:25;1.67;;;1.00;;
6997;SDS011;3539;47.982;12.238;2023-08-06T09:17:53;1.77;;;1.10;;
6997;SDS011;3539;47.982;12.238;2023-08-06T09:20:20;1.20;;;0.80;;
6997;SDS011;3539;47.982;12.238;2023-08-06T09:22:47;1.70;;;0.90;;
6997;SDS011;3539;47.982;12.238;2023-08-06T09:25:19;1.20;;;1.10;;
6997;SDS011;3539;47.982;12.238;2023-08-06T09:27:48;3.77;;;1.30;;
6997;SDS011;3539;47.982;12.238;2023-08-06T09:30:29;2.40;;;0.90;;
6997;SDS011;3539;47.982;12.238;2023-08-06T09:32:56;2.43;;;0.83;;
6997;SDS011;3539;47.982;12.238;2023-08-06T09:35:23;0.60;;;0.60;;
6997;SDS011;3539;47.982;12.238;2023-08-06T09:37:50;0.93;;;0.73;;
6997;SDS011;3539;47.982;12.238;2023-08-06T09:40:27;0.73;;;0.73;;
6997;SDS011;3539;47.982;12.238;2023-08-06T09:42:54;0.83;;;0.70;;
6997;SDS011;3539;47.982;12.238;2023-08-06T09:45:21;1.97;;;0.70;;
6997;SDS011;3539;47.982;12.238;2023-08-06T09:47:50;1.70;;;0.67;;
6997;SDS011;3539;47.982;12.238;2023-08-06T09:50:18;1.13;;;0.80;;
6997;SDS011;3539;47.982;12.238;2023-08-06T09:52:46;1.00;;;0.80;;
6997;SDS011;3539;47.982;12.238;2023-08-06T09:55:13;0.70;;;0.70;;
6997;SDS011;3539;47.982;12.238;2023-08-06T09:57:41;2.33;;;0.80;;
6997;SDS011;3539;47.982;12.238;2023-08-06T10:00:09;1.13;;;0.70;;
6997;SDS011;3539;47.982;12.238;2023-08-06T10:02:37;0.50;;;0.50;;
6997;SDS011;3539;47.982;12.238;2023-08-06T10:05:06;1.30;;;0.60;;
6997;SDS011;3539;47.982;12.238;2023-08-06T10:07:34;0.33;;;0.33;;
6997;SDS011;3539;47.982;12.238;2023-08-06T10:10:02;0.50;;;0.50;;
6997;SDS011;3539;47.982;12.238;2023-08-06T10:12:29;0.60;;;0.50;;
6997;SDS011;3539;47.982;12.238;2023-08-06T10:14:59;0.43;;;0.40;;
6997;SDS011;3539;47.982;12.238;2023-08-06T10:17:30;0.40;;;0.40;;
6997;SDS011;3539;47.982;12.238;2023-08-06T10:19:58;0.93;;;0.60;;
6997;SDS011;3539;47.982;12.238;2023-08-06T10:22:29;0.50;;;0.50;;
6997;SDS011;3539;47.982;12.238;2023-08-06T10:24:59;0.83;;;0.50;;
6997;SDS011;3539;47.982;12.238;2023-08-06T10:27:30;1.60;;;1.03;;
6997;SDS011;3539;47.982;12.238;2023-08-06T10:32:52;0.60;;;0.60;;
6997;SDS011;3539;47.982;12.238;2023-08-06T10:35:28;0.33;;;0.33;;
6997;SDS011;3539;47.982;12.238;2023-08-06T10:38:01;0.30;;;0.30;;
6997;SDS011;3539;47.982;12.238;2023-08-06T10:40:30;0.40;;;0.40;;
6997;SDS011;3539;47.982;12.238;2023-08-06T10:42:58;0.87;;;0.33;;
6997;SDS011;3539;47.982;12.238;2023-08-06T10:45:26;0.60;;;0.40;;
6997;SDS011;3539;47.982;12.238;2023-08-06T10:47:54;2.23;;;0.47;;
6997;SDS011;3539;47.982;12.238;2023-08-06T10:50:22;0.77;;;0.47;;
6997;SDS011;3539;47.982;12.238;2023-08-06T10:52:49;2.33;;;0.50;;
6997;SDS011;3539;47.982;12.238;2023-08-06T10:55:23;1.40;;;0.40;;
6997;SDS011;3539;47.982;12.238;2023-08-06T10:57:54;0.30;;;0.30;;
6997;SDS011;3539;47.982;12.238;2023-08-06T11:00:21;0.43;;;0.43;;
6997;SDS011;3539;47.982;12.238;2023-08-06T11:02:51;0.30;;;0.30;;
6997;SDS011;3539;47.982;12.238;2023-08-06T11:05:30;1.60;;;0.47;;
6997;SDS011;3539;47.982;12.238;2023-08-06T11:07:57;0.40;;;0.33;;
6997;SDS011;3539;47.982;12.238;2023-08-06T11:10:25;0.60;;;0.60;;
6997;SDS011;3539;47.982;12.238;2023-08-06T11:12:53;0.30;;;0.30;;
6997;SDS011;3539;47.982;12.238;2023-08-06T11:15:20;0.43;;;0.30;;
6997;SDS011;3539;47.982;12.238;2023-08-06T11:20:22;0.40;;;0.40;;
6997;SDS011;3539;47.982;12.238;2023-08-06T11:22:49;0.40;;;0.40;;
6997;SDS011;3539;47.982;12.238;2023-08-06T11:25:17;1.03;;;0.57;;
6997;SDS011;3539;47.982;12.238;2023-08-06T11:27:48;0.20;;;0.20;;
6997;SDS011;3539;47.982;12.238;2023-08-06T11:30:15;0.40;;;0.30;;
6997;SDS011;3539;47.982;12.238;2023-08-06T11:32:45;1.30;;;0.37;;
6997;SDS011;3539;47.982;12.238;2023-08-06T11:35:13;4.03;;;0.53;;
6997;SDS011;3539;47.982;12.238;2023-08-06T11:37:43;0.30;;;0.30;;
6997;SDS011;3539;47.982;12.238;2023-08-06T11:41:16;2.27;;;0.67;;
6997;SDS011;3539;47.982;12.238;2023-08-06T11:43:23;1.13;;;0.40;;
6997;SDS011;3539;47.982;12.238;2023-08-06T11:45:50;0.30;;;0.30;;
6997;SDS011;3539;47.982;12.238;2023-08-06T11:48:19;0.70;;;0.40;;
6997;SDS011;3539;47.982;12.238;2023-08-06T11:50:46;0.30;;;0.30;;
6997;SDS011;3539;47.982;12.238;2023-08-06T11:53:13;0.30;;;0.30;;
6997;SDS011;3539;47.982;12.238;2023-08-06T11:55:49;1.83;;;0.43;;
6997;SDS011;3539;47.982;12.238;2023-08-06T11:58:17;0.30;;;0.30;;
6997;SDS011;3539;47.982;12.238;2023-08-06T12:00:45;0.40;;;0.40;;
6997;SDS011;3539;47.982;12.238;2023-08-06T12:03:12;0.63;;;0.63;;
6997;SDS011;3539;47.982;12.238;2023-08-06T12:05:39;0.27;;;0.27;;
6997;SDS011;3539;47.982;12.238;2023-08-06T12:08:06;0.37;;;0.37;;
6997;SDS011;3539;47.982;12.238;2023-08-06T12:10:36;0.40;;;0.40;;
6997;SDS011;3539;47.982;12.238;2023-08-06T12:13:03;0.37;;;0.37;;
6997;SDS011;3539;47.982;12.238;2023-08-06T12:15:30;0.73;;;0.40;;
6997;SDS011;3539;47.982;12.238;2023-08-06T12:17:58;0.40;;;0.40;;
6997;SDS011;3539;47.982;12.238;2023-08-06T12:20:25;0.30;;;0.30;;
6997;SDS011;3539;47.982;12.238;2023-08-06T12:22:53;0.40;;;0.40;;
6997;SDS011;3539;47.982;12.238;2023-08-06T12:25:20;0.20;;;0.20;;
6997;SDS011;3539;47.982;12.238;2023-08-06T12:27:48;0.30;;;0.30;;
6997;SDS011;3539;47.982;12.238;2023-08-06T12:30:15;0.20;;;0.20;;
6997;SDS011;3539;47.982;12.238;2023-08-06T12:32:42;0.20;;;0.20;;
6997;SDS011;3539;47.982;12.238;2023-08-06T12:40:36;0.75;;;0.50;;
6997;SDS011;3539;47.982;12.238;2023-08-06T12:43:03;0.20;;;0.20;;
6997;SDS011;3539;47.982;12.238;2023-08-06T12:45:30;0.40;;;0.40;;
6997;SDS011;3539;47.982;12.238;2023-08-06T12:47:57;1.20;;;0.30;;
6997;SDS011;3539;47.982;12.238;2023-08-06T12:50:24;0.30;;;0.30;;
6997;SDS011;3539;47.982;12.238;2023-08-06T12:52:51;1.63;;;0.40;;
6997;SDS011;3539;47.982;12.238;2023-08-06T12:55:18;0.20;;;0.20;;
6997;SDS011;3539;47.982;12.238;2023-08-06T12:57:46;0.30;;;0.30;;
6997;SDS011;3539;47.982;12.238;2023-08-06T13:00:13;1.13;;;0.40;;
6997;SDS011;3539;47.982;12.238;2023-08-06T13:02:44;0.77;;;0.40;;
6997;SDS011;3539;47.982;12.238;2023-08-06T13:05:11;0.40;;;0.40;;
6997;SDS011;3539;47.982;12.238;2023-08-06T13:07:38;0.23;;;0.23;;
6997;SDS011;3539;47.982;12.238;2023-08-06T13:10:11;0.73;;;0.40;;
6997;SDS011;3539;47.982;12.238;2023-08-06T13:12:39;1.00;;;0.70;;
6997;SDS011;3539;47.982;12.238;2023-08-06T13:15:08;0.40;;;0.40;;
6997;SDS011;3539;47.982;12.238;2023-08-06T13:17:35;0.43;;;0.43;;
6997;SDS011;3539;47.982;12.238;2023-08-06T13:20:02;0.27;;;0.27;;
6997;SDS011;3539;47.982;12.238;2023-08-06T13:22:30;0.30;;;0.30;;
6997;SDS011;3539;47.982;12.238;2023-08-06T13:24:57;0.40;;;0.40;;
6997;SDS011;3539;47.982;12.238;2023-08-06T13:27:25;0.30;;;0.30;;
6997;SDS011;3539;47.982;12.238;2023-08-06T13:29:52;1.40;;;0.37;;
6997;SDS011;3539;47.982;12.238;2023-08-06T13:32:21;0.30;;;0.30;;
6997;SDS011;3539;47.982;12.238;2023-08-06T13:34:49;0.97;;;0.50;;
6997;SDS011;3539;47.982;12.238;2023-08-06T13:37:16;1.40;;;0.30;;
6997;SDS011;3539;47.982;12.238;2023-08-06T13:39:43;0.30;;;0.30;;
6997;SDS011;3539;47.982;12.238;2023-08-06T13:42:10;0.23;;;0.23;;
6997;SDS011;3539;47.982;12.238;2023-08-06T13:44:38;0.37;;;0.30;;
6997;SDS011;3539;47.982;12.238;2023-08-06T13:47:05;0.83;;;0.30;;
6997;SDS011;3539;47.982;12.238;2023-08-06T13:49:33;0.47;;;0.30;;
6997;SDS011;3539;47.982;12.238;2023-08-06T13:52:00;0.50;;;0.40;;
6997;SDS011;3539;47.982;12.238;2023-08-06T13:54:28;0.20;;;0.20;;
6997;SDS011;3539;47.982;12.238;2023-08-06T13:56:55;3.80;;;0.40;;
6997;SDS011;3539;47.982;12.238;2023-08-06T13:59:23;1.10;;;0.20;;
6997;SDS011;3539;47.982;12.238;2023-08-06T14:01:50;0.30;;;0.30;;
6997;SDS011;3539;47.982;12.238;2023-08-06T14:04:18;0.30;;;0.30;;
6997;SDS011;3539;47.982;12.238;2023-08-06T14:06:50;0.30;;;0.30;;
6997;SDS011;3539;47.982;12.238;2023-08-06T14:09:17;0.33;;;0.33;;
6997;SDS011;3539;47.982;12.238;2023-08-06T14:11:44;0.83;;;0.27;;
6997;SDS011;3539;47.982;12.238;2023-08-06T14:14:11;0.20;;;0.20;;
6997;SDS011;3539;47.982;12.238;2023-08-06T14:16:39;0.30;;;0.30;;
6997;SDS011;3539;47.982;12.238;2023-08-06T14:19:07;0.23;;;0.23;;
6997;SDS011;3539;47.982;12.238;2023-08-06T14:21:35;1.20;;;0.80;;
6997;SDS011;3539;47.982;12.238;2023-08-06T14:24:11;0.23;;;0.23;;
6997;SDS011;3539;47.982;12.238;2023-08-06T14:26:38;0.30;;;0.30;;
6997;SDS011;3539;47.982;12.238;2023-08-06T14:29:06;0.33;;;0.33;;
6997;SDS011;3539;47.982;12.238;2023-08-06T14:31:33;0.20;;;0.20;;
6997;SDS011;3539;47.982;12.238;2023-08-06T14:34:00;0.30;;;0.30;;
6997;SDS011;3539;47.982;12.238;2023-08-06T14:36:27;0.40;;;0.40;;
6997;SDS011;3539;47.982;12.238;2023-08-06T14:38:54;0.33;;;0.33;;
6997;SDS011;3539;47.982;12.238;2023-08-06T14:41:22;0.30;;;0.30;;
6997;SDS011;3539;47.982;12.238;2023-08-06T14:43:49;0.40;;;0.40;;
6997;SDS011;3539;47.982;12.238;2023-08-06T14:46:16;0.30;;;0.30;;
6997;SDS011;3539;47.982;12.238;2023-08-06T14:48:44;0.27;;;0.27;;
6997;SDS011;3539;47.982;12.238;2023-08-06T14:51:12;0.27;;;0.27;;
6997;SDS011;3539;47.982;12.238;2023-08-06T14:53:39;0.20;;;0.20;;
6997;SDS011;3539;47.982;12.238;2023-08-06T14:56:06;0.20;;;0.20;;
6997;SDS011;3539;47.982;12.238;2023-08-06T14:58:34;0.47;;;0.30;;
6997;SDS011;3539;47.982;12.238;2023-08-06T15:01:01;0.40;;;0.40;;
6997;SDS011;3539;47.982;12.238;2023-08-06T15:03:28;0.30;;;0.30;;
6997;SDS011;3539;47.982;12.238;2023-08-06T15:05:56;0.30;;;0.30;;
6997;SDS011;3539;47.982;12.238;2023-08-06T15:08:23;0.30;;;0.30;;
6997;SDS011;3539;47.982;12.238;2023-08-06T15:10:50;0.40;;;0.40;;
6997;SDS011;3539;47.982;12.238;2023-08-06T15:13:17;0.30;;;0.30;;
6997;SDS011;3539;47.982;12.238;2023-08-06T15:15:47;0.40;;;0.40;;
6997;SDS011;3539;47.982;12.238;2023-08-06T15:18:14;0.40;;;0.40;;
6997;SDS011;3539;47.982;12.238;2023-08-06T15:20:41;1.03;;;0.30;;
6997;SDS011;3539;47.982;12.238;2023-08-06T15:23:08;0.33;;;0.33;;
6997;SDS011;3539;47.982;12.238;2023-08-06T15:25:35;0.40;;;0.40;;
6997;SDS011;3539;47.982;12.238;2023-08-06T15:28:02;0.87;;;0.87;;
6997;SDS011;3539;47.982;12.238;2023-08-06T15:30:29;0.53;;;0.40;;
6997;SDS011;3539;47.982;12.238;2023-08-06T15:32:57;0.27;;;0.27;;
6997;SDS011;3539;47.982;12.238;2023-08-06T15:35:24;0.30;;;0.30;;
6997;SDS011;3539;47.982;12.238;2023-08-06T15:37:51;0.50;;;0.50;;
6997;SDS011;3539;47.982;12.238;2023-08-06T15:40:18;0.30;;;0.30;;
6997;SDS011;3539;47.982;12.238;2023-08-06T15:42:45;1.97;;;0.53;;
6997;SDS011;3539;47.982;12.238;2023-08-06T15:45:12;0.47;;;0.40;;
6997;SDS011;3539;47.982;12.238;2023-08-06T15:47:39;0.40;;;0.40;;
6997;SDS011;3539;47.982;12.238;2023-08-06T15:50:08;0.80;;;0.30;;
6997;SDS011;3539;47.982;12.238;2023-08-06T15:52:35;0.50;;;0.50;;
6997;SDS011;3539;47.982;12.238;2023-08-06T15:55:02;0.27;;;0.27;;
6997;SDS011;3539;47.982;12.238;2023-08-06T15:57:31;0.33;;;0.33;;
6997;SDS011;3539;47.982;12.238;2023-08-06T15:59:57;0.50;;;0.50;;
6997;SDS011;3539;47.982;12.238;2023-08-06T16:02:26;0.40;;;0.40;;
6997;SDS011;3539;47.982;12.238;2023-08-06T16:04:53;0.40;;;0.40;;